Daytona Beach, FL

10:40 PM EDT on August 27, 2015 (GMT -0400)
Embry Riddle Aeronautical University WeatherSTEM | | Change Station
CLOSE
Current Station
Personal Weather Station
Location: Daytona Beach, FL
Elevation: 42 ft
Nearby Weather Stations

Elev 42 ft 29.19 °N, 81.05 °W | Updated 55 seconds ago

Mostly Cloudy
Mostly Cloudy
76.7 °F
Feels Like 77 °F
N
0.0
Wind Variable Wind from South
Gusts 1.0 mph

Today
High -- | Low -- °F
--% Chance of Precip.
Yesterday
High -- | Low -- °F
Precip. -- in
6:59 AM 7:51 PM
Waxing Gibbous, 96% visible
Pressure 29.98 in
Visibility 10.0 miles
Clouds Few 3900 ft
Few 15000 ft
Mostly Cloudy 20000 ft
Heat Index 77 °F
Dew Point 74 °F
Humidity 92%
Rainfall 0.46 in
Snow Depth Not available.
UV 0.0 out of 12
Pollen 1.20 out of 12
Air Quality Not available.
Flu Activity Not available.
METAR KDAB 280153Z 00000KT 10SM FEW039 FEW150 BKN200 24/23 A2998 RMK AO2 SLP150 CONS LTGIC DSNT W NW CB DSNT W NW T02440233
Pressure 29.98 in
Visibility 10.0 miles
Clouds Few 3900 ft
Few 15000 ft
Mostly Cloudy 20000 ft
Heat Index 77 °F
Dew Point 74 °F
Humidity 92%
Rainfall 0.46 in
Snow Depth Not available.
UV 0.0 out of 12
Pollen 1.20 out of 12
Air Quality Not available.
Flu Activity Not available.
METAR KDAB 280153Z 00000KT 10SM FEW039 FEW150 BKN200 24/23 A2998 RMK AO2 SLP150 CONS LTGIC DSNT W NW CB DSNT W NW T02440233
Tropical Storm Erika remains unorganized as it travels through the northeast Caribbean Sea. The storm has already dumped 5-10 inches of rain on the Lesser Antilles, with more rain anticipated for Puerto Rico and Hispaniola. This will be much-needed rain for those islands. Erika is not forecast to reach hurricane strength until Monday when it curves northward along the east coast of Florida. Follow the live blog

10-Day Weather Forecast

×

Almanac

Astronomy

Aug. 27, 2015 Rise Set
Actual Time
Civil Twilight
Nautical Twilight
Astronomical Twilight
Moon
Length of Visible Light
Length of Day
Tomorrow will be .
, % of the Moon is Illuminated

Today's Extremes

State Highs State Lows

Community

WunderPhotos

Upload Photos

1,850,310 photos uploaded!

WunderBlogs® & News

Nearby

Air Quality

  Air Quality AQ Index Pollutant
Not available.

Snow Depth

Station Depth Elevation

Earthquake Activity

City Distance Mag. Time & Date
Minimum magnitude displayed is 2.5.

Coastal Water Temperatures

Place Temperature

Stations

Nearby Weather Stations

Station Location Temp. Windchill Dew Point Humidity Wind Precip. Elev Updated Type